createdAt,value
2016-05-03T00:00:38.274Z,101374
2016-05-03T00:00:50.665Z,101389
2016-05-03T00:01:03.399Z,101392
2016-05-03T00:01:15.727Z,101392
2016-05-03T00:01:28.183Z,101383
2016-05-03T00:02:38.248Z,101383
2016-05-03T00:02:50.873Z,101377
2016-05-03T00:03:03.341Z,101371
2016-05-03T00:04:58.832Z,101377
2016-05-03T00:05:11.457Z,101380
2016-05-03T00:05:23.850Z,101365
2016-05-03T00:05:36.288Z,101380
2016-05-03T00:05:50.460Z,101380
2016-05-03T00:06:02.929Z,101389
2016-05-03T00:06:15.413Z,101371
2016-05-03T00:06:27.977Z,101371
2016-05-03T00:06:40.384Z,101374
2016-05-03T00:08:38.779Z,101377
2016-05-03T00:08:51.279Z,101377
2016-05-03T00:09:03.717Z,101361
2016-05-03T00:09:16.326Z,101367
2016-05-03T00:09:28.815Z,101367
2016-05-03T00:09:41.236Z,101367
2016-05-03T00:09:53.783Z,101367
2016-05-03T00:11:58.304Z,101367
2016-05-03T00:12:11.351Z,101361
2016-05-03T00:12:23.979Z,101377
2016-05-03T00:12:36.448Z,101367
2016-05-03T00:12:48.994Z,101361
2016-05-03T00:13:01.479Z,101361
2016-05-03T00:13:13.869Z,101373
2016-05-03T00:13:26.465Z,101367
2016-05-03T00:13:38.856Z,101361
2016-05-03T00:13:51.246Z,101367
2016-05-03T00:14:03.934Z,101358
2016-05-03T00:14:16.387Z,101361
2016-05-03T00:14:28.734Z,101370
2016-05-03T00:15:36.221Z,101355
2016-05-03T00:15:48.706Z,101361
2016-05-03T00:16:01.112Z,101358
2016-05-03T00:16:13.549Z,101355
2016-05-03T00:16:26.161Z,101367
2016-05-03T00:16:38.754Z,101355
2016-05-03T00:16:51.145Z,101370
2016-05-03T00:17:03.864Z,101358
2016-05-03T00:17:16.411Z,101361
2016-05-03T00:17:28.867Z,101370
2016-05-03T00:17:41.320Z,101355
2016-05-03T00:17:53.945Z,101364
2016-05-03T00:18:06.336Z,101370
2016-05-03T00:18:18.757Z,101361
2016-05-03T00:18:31.370Z,101355
2016-05-03T00:18:43.729Z,101358
2016-05-03T00:18:56.276Z,101350
2016-05-03T00:19:08.760Z,101361
2016-05-03T00:19:21.354Z,101355
2016-05-03T00:19:33.685Z,101340
2016-05-03T00:20:41.094Z,101355
2016-05-03T00:20:53.594Z,101343
2016-05-03T00:21:06.062Z,101358
2016-05-03T00:22:20.706Z,101346
2016-05-03T00:22:33.990Z,101346
2016-05-03T00:22:46.521Z,101361
2016-05-03T00:22:59.365Z,101340
2016-05-03T00:23:12.053Z,101358
2016-05-03T00:23:24.412Z,101361
2016-05-03T00:23:36.852Z,101355
2016-05-03T00:23:49.211Z,101361
2016-05-03T00:24:01.789Z,101346
2016-05-03T00:24:14.273Z,101361
2016-05-03T00:24:26.683Z,101346
2016-05-03T00:24:39.292Z,101361
2016-05-03T00:24:51.870Z,101358
2016-05-03T00:26:03.668Z,101352
2016-05-03T00:26:17.843Z,101352
2016-05-03T00:26:30.408Z,101343
2016-05-03T00:26:42.893Z,101360
2016-05-03T00:27:51.150Z,101346
2016-05-03T00:28:04.970Z,101349
2016-05-03T00:28:19.503Z,101346
2016-05-03T00:29:31.008Z,101349
2016-05-03T00:29:43.446Z,101346
2016-05-03T00:30:53.750Z,101346
2016-05-03T00:31:06.234Z,101346
2016-05-03T00:31:19.390Z,101346
2016-05-03T00:31:32.144Z,101349
2016-05-03T00:31:44.644Z,101346
2016-05-03T00:32:51.147Z,101343
2016-05-03T00:33:03.788Z,101349
2016-05-03T00:33:16.303Z,101346
2016-05-03T00:34:21.149Z,101357
2016-05-03T00:35:33.624Z,101334
2016-05-03T00:35:46.061Z,101340
2016-05-03T00:36:05.749Z,101334
2016-05-03T00:36:18.171Z,101343
2016-05-03T00:36:30.813Z,101340
2016-05-03T00:36:43.501Z,101334
2016-05-03T00:36:58.173Z,101337
2016-05-03T00:37:13.235Z,101334
2016-05-03T00:37:27.429Z,101343
2016-05-03T00:37:39.976Z,101330
2016-05-03T00:37:52.819Z,101336
2016-05-03T00:39:53.606Z,101336
2016-05-03T00:40:06.168Z,101333
2016-05-03T00:40:18.668Z,101330
2016-05-03T00:40:31.109Z,101330
2016-05-03T00:40:43.499Z,101339
2016-05-03T00:40:56.155Z,101336
2016-05-03T00:42:58.677Z,101318
2016-05-03T00:43:11.302Z,101333
2016-05-03T00:43:23.911Z,101333
2016-05-03T00:43:36.304Z,101324
2016-05-03T00:43:48.788Z,101333
2016-05-03T00:44:01.304Z,101327
2016-05-03T00:44:13.788Z,101336
2016-05-03T00:44:26.210Z,101321
2016-05-03T00:44:38.651Z,101321
2016-05-03T00:44:51.198Z,101336
2016-05-03T00:45:03.776Z,101342
2016-05-03T00:45:16.166Z,101333
2016-05-03T00:45:28.762Z,101324
2016-05-03T00:46:41.031Z,101333
2016-05-03T00:46:53.375Z,101348
2016-05-03T00:47:06.718Z,101327
2016-05-03T00:47:19.250Z,101327
2016-05-03T00:47:31.674Z,101330
2016-05-03T00:47:44.174Z,101327
2016-05-03T00:47:56.534Z,101339
2016-05-03T00:48:09.190Z,101327
2016-05-03T00:48:21.659Z,101336
2016-05-03T00:48:33.959Z,101324
2016-05-03T00:48:46.521Z,101330
2016-05-03T00:48:59.068Z,101336
2016-05-03T00:49:11.599Z,101333
2016-05-03T00:49:24.162Z,101324
2016-05-03T00:49:36.726Z,101333
2016-05-03T00:49:49.148Z,101339
2016-05-03T00:50:01.633Z,101333
2016-05-03T00:50:14.289Z,101330
2016-05-03T00:50:26.742Z,101339
2016-05-03T00:50:39.229Z,101345
2016-05-03T00:50:51.651Z,101327
2016-05-03T00:51:04.057Z,101327
2016-05-03T00:52:13.810Z,101345
2016-05-03T00:53:18.750Z,101345
2016-05-03T00:53:31.190Z,101345
2016-05-03T00:53:43.722Z,101330
2016-05-03T00:53:56.097Z,101351
2016-05-03T00:54:08.425Z,101330
2016-05-03T00:54:21.081Z,101333
2016-05-03T00:54:33.490Z,101342
2016-05-03T00:54:45.756Z,101336
2016-05-03T00:54:58.443Z,101336
2016-05-03T00:55:10.959Z,101339
2016-05-03T00:55:23.287Z,101333
2016-05-03T00:55:36.649Z,101333
2016-05-03T00:55:49.086Z,101339
2016-05-03T00:56:53.589Z,101339
2016-05-03T00:57:06.245Z,101320
2016-05-03T00:57:18.714Z,101320
2016-05-03T00:57:31.167Z,101326
2016-05-03T00:58:36.266Z,101332
2016-05-03T00:58:49.313Z,101323
2016-05-03T00:59:58.753Z,101326
2016-05-03T01:00:11.285Z,101326
2016-05-03T01:01:21.100Z,101326
2016-05-03T01:01:33.727Z,101329
2016-05-03T01:01:46.149Z,101335
2016-05-03T01:01:58.555Z,101323
2016-05-03T01:02:11.149Z,101326
2016-05-03T01:03:20.950Z,101326
2016-05-03T01:03:33.358Z,101320
2016-05-03T01:03:45.983Z,101323
2016-05-03T01:04:50.954Z,101323
2016-05-03T01:05:54.614Z,101323
2016-05-03T01:06:07.223Z,101308
2016-05-03T01:06:19.645Z,101311
2016-05-03T01:06:32.177Z,101314
2016-05-03T01:07:40.947Z,101314
2016-05-03T01:07:53.510Z,101326
2016-05-03T01:08:06.103Z,101320
2016-05-03T01:08:18.478Z,101311
2016-05-03T01:08:30.885Z,101323
2016-05-03T01:10:33.625Z,101326
2016-05-03T01:10:46.001Z,101323
2016-05-03T01:10:58.564Z,101311
2016-05-03T01:11:11.235Z,101311
2016-05-03T01:11:23.657Z,101323
2016-05-03T01:11:36.099Z,101323
2016-05-03T01:13:38.728Z,101320
2016-05-03T01:13:51.212Z,101326
2016-05-03T01:14:03.509Z,101307
2016-05-03T01:14:16.009Z,101320
2016-05-03T01:14:28.572Z,101305
2016-05-03T01:14:40.951Z,101317
2016-05-03T01:14:53.404Z,101317
2016-05-03T01:15:05.966Z,101307
2016-05-03T01:15:18.294Z,101305
2016-05-03T01:15:30.716Z,101310
2016-05-03T01:15:43.328Z,101310
2016-05-03T01:15:55.734Z,101302
2016-05-03T01:16:08.234Z,101316
2016-05-03T01:17:10.971Z,101307
2016-05-03T01:17:23.877Z,101316
2016-05-03T01:17:36.489Z,101307
2016-05-03T01:17:48.879Z,101310
2016-05-03T01:18:01.161Z,101302
2016-05-03T01:18:13.629Z,101302
2016-05-03T01:18:26.192Z,101307
2016-05-03T01:18:38.571Z,101307
2016-05-03T01:18:51.180Z,101302
2016-05-03T01:19:03.774Z,101299
2016-05-03T01:19:16.165Z,101296
2016-05-03T01:19:28.665Z,101307
2016-05-03T01:19:41.120Z,101299
2016-05-03T01:19:53.729Z,101305
2016-05-03T01:20:06.057Z,101299
2016-05-03T01:20:18.510Z,101293
2016-05-03T01:20:31.057Z,101305
2016-05-03T01:20:43.467Z,101302
2016-05-03T01:20:55.795Z,101307
2016-05-03T01:21:08.388Z,101299
2016-05-03T01:21:20.951Z,101302
2016-05-03T01:21:33.295Z,101293
2016-05-03T01:22:44.472Z,101299
2016-05-03T01:23:50.959Z,101299
2016-05-03T01:24:03.568Z,101299
2016-05-03T01:24:15.975Z,101305
2016-05-03T01:24:28.428Z,101296
2016-05-03T01:24:41.712Z,101299
2016-05-03T01:24:54.134Z,101305
2016-05-03T01:25:06.571Z,101313
2016-05-03T01:25:19.399Z,101293
2016-05-03T01:25:31.774Z,101299
2016-05-03T01:25:44.120Z,101299
2016-05-03T01:25:56.730Z,101290
2016-05-03T01:26:09.183Z,101293
2016-05-03T01:26:21.558Z,101310
2016-05-03T01:27:26.311Z,101286
2016-05-03T01:27:38.751Z,101299
2016-05-03T01:27:51.314Z,101299
2016-05-03T01:28:03.861Z,101289
2016-05-03T01:29:08.363Z,101283
2016-05-03T01:29:20.988Z,101295
2016-05-03T01:30:23.616Z,101280
2016-05-03T01:30:35.975Z,101280
2016-05-03T01:31:43.622Z,101301
2016-05-03T01:31:56.090Z,101280
2016-05-03T01:32:08.512Z,101283
2016-05-03T01:32:21.122Z,101286
2016-05-03T01:32:33.700Z,101277
2016-05-03T01:33:43.720Z,101280
2016-05-03T01:33:56.345Z,101286
2016-05-03T01:34:08.689Z,101289
2016-05-03T01:35:14.505Z,101301
2016-05-03T01:36:23.647Z,101277
2016-05-03T01:36:35.991Z,101283
2016-05-03T01:36:48.385Z,101286
2016-05-03T01:37:02.447Z,101277
2016-05-03T01:37:16.775Z,101289
2016-05-03T01:38:23.700Z,101277
2016-05-03T01:38:36.966Z,101280
2016-05-03T01:38:49.249Z,101292
2016-05-03T01:39:01.765Z,101283
2016-05-03T01:39:14.265Z,101289
2016-05-03T01:41:23.771Z,101280
2016-05-03T01:41:36.364Z,101274
2016-05-03T01:41:48.649Z,101289
2016-05-03T01:42:01.024Z,101277
2016-05-03T01:42:13.664Z,101283
2016-05-03T01:42:26.055Z,101286
2016-05-03T01:44:28.779Z,101289
2016-05-03T01:44:41.325Z,101280
2016-05-03T01:44:53.640Z,101280
2016-05-03T01:45:06.015Z,101283
2016-05-03T01:45:18.515Z,101264
2016-05-03T01:45:31.093Z,101277
2016-05-03T01:45:43.702Z,101283
2016-05-03T01:45:56.018Z,101271
2016-05-03T01:46:08.580Z,101277
2016-05-03T01:46:21.174Z,101274
2016-05-03T01:46:34.190Z,101277
2016-05-03T01:46:46.630Z,101274
2016-05-03T01:46:59.255Z,101289
2016-05-03T01:48:08.743Z,101277
2016-05-03T01:48:21.165Z,101270
2016-05-03T01:48:34.399Z,101270
2016-05-03T01:48:46.745Z,101270
2016-05-03T01:48:59.182Z,101261
2016-05-03T01:49:12.276Z,101270
2016-05-03T01:49:24.838Z,101276
2016-05-03T01:49:37.385Z,101273
2016-05-03T01:49:49.685Z,101270
2016-05-03T01:50:02.920Z,101273
2016-05-03T01:50:15.482Z,101273
2016-05-03T01:50:27.904Z,101276
2016-05-03T01:50:40.466Z,101277
2016-05-03T01:50:52.954Z,101264
2016-05-03T01:51:05.313Z,101273
2016-05-03T01:51:17.673Z,101264
2016-05-03T01:51:30.110Z,101276
2016-05-03T01:51:42.641Z,101267
2016-05-03T01:51:55.737Z,101283
2016-05-03T01:52:09.534Z,101273
2016-05-03T01:52:22.003Z,101279
2016-05-03T01:52:35.112Z,101264
2016-05-03T01:52:47.538Z,101267
2016-05-03T01:52:59.960Z,101267
2016-05-03T01:54:08.727Z,101283
2016-05-03T01:54:21.134Z,101273
2016-05-03T01:54:33.587Z,101267
2016-05-03T01:54:46.229Z,101264
2016-05-03T01:54:58.558Z,101267
2016-05-03T01:55:11.198Z,101273
2016-05-03T01:55:23.620Z,101264
2016-05-03T01:55:36.011Z,101276
2016-05-03T01:55:48.624Z,101273
2016-05-03T01:56:01.718Z,101276
2016-05-03T01:56:14.124Z,101264
2016-05-03T01:56:26.671Z,101267
2016-05-03T01:56:39.171Z,101276
2016-05-03T01:57:43.470Z,101283
2016-05-03T01:57:56.034Z,101267
2016-05-03T01:58:08.612Z,101267
2016-05-03T01:58:20.987Z,101276
2016-05-03T01:59:26.240Z,101279
2016-05-03T01:59:38.600Z,101273
2016-05-03T02:00:51.121Z,101292
2016-05-03T02:01:03.543Z,101273
2016-05-03T02:02:13.733Z,101285
2016-05-03T02:02:26.264Z,101285
2016-05-03T02:02:38.639Z,101285
2016-05-03T02:02:51.080Z,101292
2016-05-03T02:03:03.689Z,101285
2016-05-03T02:04:13.598Z,101292
2016-05-03T02:04:26.036Z,101295
2016-05-03T02:04:38.708Z,101295
2016-05-03T02:05:43.617Z,101282
2016-05-03T02:06:56.074Z,101285
2016-05-03T02:07:08.449Z,101276
2016-05-03T02:07:20.996Z,101282
2016-05-03T02:07:34.246Z,101297
2016-05-03T02:07:47.281Z,101285
2016-05-03T02:08:58.564Z,101291
2016-05-03T02:09:10.971Z,101279
2016-05-03T02:09:23.986Z,101279
2016-05-03T02:09:37.252Z,101288
2016-05-03T02:09:49.708Z,101282
2016-05-03T02:11:56.135Z,101288
2016-05-03T02:12:08.604Z,101291
2016-05-03T02:12:21.166Z,101279
2016-05-03T02:12:33.416Z,101282
2016-05-03T02:12:45.966Z,101276
2016-05-03T02:12:58.560Z,101282
2016-05-03T02:15:01.002Z,101279
2016-05-03T02:15:14.205Z,101276
2016-05-03T02:15:26.783Z,101270
2016-05-03T02:15:39.112Z,101279
2016-05-03T02:15:51.646Z,101273
2016-05-03T02:16:04.271Z,101276
2016-05-03T02:16:16.615Z,101276
2016-05-03T02:16:29.099Z,101276
2016-05-03T02:16:41.630Z,101279
2016-05-03T02:16:54.274Z,101285
2016-05-03T02:17:06.571Z,101276
2016-05-03T02:17:18.930Z,101276
2016-05-03T02:17:31.602Z,101276
2016-05-03T02:18:41.010Z,101266
2016-05-03T02:18:53.404Z,101276
2016-05-03T02:19:06.013Z,101266
2016-05-03T02:19:18.466Z,101269
2016-05-03T02:19:30.669Z,101260
2016-05-03T02:19:43.248Z,101272
2016-05-03T02:19:55.797Z,101263
2016-05-03T02:20:08.376Z,101272
2016-05-03T02:20:20.766Z,101263
2016-05-03T02:20:33.829Z,101263
2016-05-03T02:20:46.457Z,101269
2016-05-03T02:20:58.941Z,101266
2016-05-03T02:21:11.332Z,101269
2016-05-03T02:21:23.972Z,101266
2016-05-03T02:21:36.535Z,101257
2016-05-03T02:21:48.927Z,101263
2016-05-03T02:22:03.349Z,101266
2016-05-03T02:22:15.912Z,101257
2016-05-03T02:22:29.756Z,101269
2016-05-03T02:22:43.927Z,101272
2016-05-03T02:22:56.415Z,101275
2016-05-03T02:23:08.884Z,101260
2016-05-03T02:23:21.477Z,101269
2016-05-03T02:23:33.915Z,101272
2016-05-03T02:24:43.714Z,101275
2016-05-03T02:24:56.310Z,101266
2016-05-03T02:25:08.701Z,101272
2016-05-03T02:25:21.139Z,101272
2016-05-03T02:25:33.748Z,101269
2016-05-03T02:25:46.079Z,101272
2016-05-03T02:25:58.392Z,101269
2016-05-03T02:26:11.017Z,101281
2016-05-03T02:26:23.501Z,101275
2016-05-03T02:26:36.017Z,101278
2016-05-03T02:26:48.395Z,101266
2016-05-03T02:27:00.879Z,101269
2016-05-03T02:28:08.693Z,101272
2016-05-03T02:28:21.006Z,101278
2016-05-03T02:28:33.615Z,101281
2016-05-03T02:28:46.240Z,101275
2016-05-03T02:29:50.965Z,101275
2016-05-03T02:30:03.559Z,101269
2016-05-03T02:30:16.043Z,101272
2016-05-03T02:31:28.406Z,101266
2016-05-03T02:32:38.736Z,101269
2016-05-03T02:32:51.144Z,101260
2016-05-03T02:33:03.706Z,101266
2016-05-03T02:33:16.253Z,101260
2016-05-03T02:33:28.660Z,101260
2016-05-03T02:34:38.726Z,101260
2016-05-03T02:34:51.275Z,101253
2016-05-03T02:35:03.525Z,101263
2016-05-03T02:36:08.731Z,101247
2016-05-03T02:37:13.467Z,101257
2016-05-03T02:37:28.546Z,101257
2016-05-03T02:37:41.108Z,101256
2016-05-03T02:37:53.596Z,101256
2016-05-03T02:38:06.143Z,101253
2016-05-03T02:39:13.630Z,101260
2016-05-03T02:39:26.161Z,101257
2016-05-03T02:39:38.833Z,101250
2016-05-03T02:39:51.132Z,101247
2016-05-03T02:40:04.147Z,101253
2016-05-03T02:42:13.810Z,101250
2016-05-03T02:42:26.247Z,101250
2016-05-03T02:42:38.606Z,101238
2016-05-03T02:42:51.250Z,101259
2016-05-03T02:43:03.703Z,101256
2016-05-03T02:43:16.078Z,101244
2016-05-03T02:45:18.786Z,101250
2016-05-03T02:45:31.380Z,101253
2016-05-03T02:45:43.708Z,101235
2016-05-03T02:45:56.149Z,101244
2016-05-03T02:46:08.758Z,101235
2016-05-03T02:46:21.164Z,101244
2016-05-03T02:46:33.586Z,101235
2016-05-03T02:46:46.102Z,101232
2016-05-03T02:46:58.620Z,101244
2016-05-03T02:47:11.636Z,101238
2016-05-03T02:47:24.214Z,101235
2016-05-03T02:47:36.808Z,101241
2016-05-03T02:47:49.245Z,101250
2016-05-03T02:48:58.782Z,101241
2016-05-03T02:49:11.375Z,101253
2016-05-03T02:49:23.844Z,101247
2016-05-03T02:49:36.125Z,101234
2016-05-03T02:49:48.813Z,101237
2016-05-03T02:50:01.268Z,101241
2016-05-03T02:50:13.612Z,101247
2016-05-03T02:50:26.159Z,101237
2016-05-03T02:50:38.706Z,101237
2016-05-03T02:50:51.131Z,101247
2016-05-03T02:51:03.741Z,101244
2016-05-03T02:51:16.335Z,101244
2016-05-03T02:51:28.788Z,101240
2016-05-03T02:51:41.256Z,101247
2016-05-03T02:51:53.712Z,101247
2016-05-03T02:52:06.399Z,101243
2016-05-03T02:52:19.868Z,101237
2016-05-03T02:52:34.024Z,101237
2016-05-03T02:52:49.883Z,101240
2016-05-03T02:53:02.355Z,101228
2016-05-03T02:53:14.824Z,101243
2016-05-03T02:53:27.433Z,101240
2016-05-03T02:53:39.965Z,101243
2016-05-03T02:53:52.264Z,101240
2016-05-03T02:55:03.689Z,101237
2016-05-03T02:55:16.174Z,101228
2016-05-03T02:55:28.861Z,101237
2016-05-03T02:55:41.189Z,101246
2016-05-03T02:55:53.551Z,101237
2016-05-03T02:56:06.816Z,101243
2016-05-03T02:56:19.113Z,101228
2016-05-03T02:56:31.504Z,101249
2016-05-03T02:56:44.098Z,101234
2016-05-03T02:56:56.601Z,101240
2016-05-03T02:57:08.960Z,101234
2016-05-03T02:57:21.476Z,101243
2016-05-03T02:57:34.069Z,101231
2016-05-03T02:58:38.385Z,101240
2016-05-03T02:58:50.963Z,101231
2016-05-03T02:59:03.277Z,101234
2016-05-03T03:00:08.734Z,101231
2016-05-03T03:00:21.312Z,101240
2016-05-03T03:00:33.687Z,101243
2016-05-03T03:01:46.298Z,101240
2016-05-03T03:01:58.832Z,101231
2016-05-03T03:03:08.398Z,101240
2016-05-03T03:03:20.992Z,101231
2016-05-03T03:03:33.523Z,101231
2016-05-03T03:03:45.882Z,101234
2016-05-03T03:03:58.541Z,101222
2016-05-03T03:05:08.340Z,101225
2016-05-03T03:05:20.778Z,101228
2016-05-03T03:05:34.215Z,101219
2016-05-03T03:07:38.768Z,101225
2016-05-03T03:07:51.768Z,101234
2016-05-03T03:08:04.411Z,101225
2016-05-03T03:08:16.801Z,101219
2016-05-03T03:08:29.270Z,101225
2016-05-03T03:09:33.772Z,101237
2016-05-03T03:09:46.178Z,101234
2016-05-03T03:09:58.495Z,101234
2016-05-03T03:10:11.057Z,101228
2016-05-03T03:10:23.464Z,101213
2016-05-03T03:12:28.594Z,101225
2016-05-03T03:12:40.969Z,101222
2016-05-03T03:12:53.453Z,101216
2016-05-03T03:13:06.721Z,101219
2016-05-03T03:13:19.111Z,101231
2016-05-03T03:13:31.377Z,101222
2016-05-03T03:15:38.758Z,101222
2016-05-03T03:15:51.180Z,101225
2016-05-03T03:16:03.667Z,101228
2016-05-03T03:16:16.308Z,101216
2016-05-03T03:16:28.777Z,101228
2016-05-03T03:16:41.433Z,101231
2016-05-03T03:16:53.792Z,101225
2016-05-03T03:17:06.280Z,101219
2016-05-03T03:17:18.936Z,101219
2016-05-03T03:17:31.436Z,101222
2016-05-03T03:17:43.858Z,101228
2016-05-03T03:17:56.485Z,101216
2016-05-03T03:18:08.844Z,101216
2016-05-03T03:19:21.191Z,101225
2016-05-03T03:19:34.488Z,101225
2016-05-03T03:19:46.988Z,101228
2016-05-03T03:19:59.365Z,101222
2016-05-03T03:20:11.912Z,101222
2016-05-03T03:20:24.568Z,101225
2016-05-03T03:20:37.052Z,101225
2016-05-03T03:20:49.427Z,101219
2016-05-03T03:21:02.055Z,101231
2016-05-03T03:21:14.586Z,101225
2016-05-03T03:21:26.977Z,101234
2016-05-03T03:21:39.555Z,101234
2016-05-03T03:21:52.149Z,101222
2016-05-03T03:22:06.058Z,101225
2016-05-03T03:22:18.449Z,101225
2016-05-03T03:22:33.277Z,101222
2016-05-03T03:22:45.668Z,101228
2016-05-03T03:22:58.249Z,101228
2016-05-03T03:23:10.842Z,101228
2016-05-03T03:23:23.483Z,101228
2016-05-03T03:23:35.952Z,101216
2016-05-03T03:23:49.217Z,101222
2016-05-03T03:24:01.844Z,101231
2016-05-03T03:24:14.251Z,101228
2016-05-03T03:25:21.160Z,101238
2016-05-03T03:25:33.847Z,101228
2016-05-03T03:25:46.332Z,101238
2016-05-03T03:25:58.865Z,101222
2016-05-03T03:26:11.521Z,101229
2016-05-03T03:26:24.006Z,101232
2016-05-03T03:26:36.474Z,101238
2016-05-03T03:26:48.959Z,101222
2016-05-03T03:27:01.493Z,101229
2016-05-03T03:27:14.056Z,101225
2016-05-03T03:27:26.477Z,101229
2016-05-03T03:27:39.134Z,101238
2016-05-03T03:27:51.790Z,101232
2016-05-03T03:28:58.312Z,101216
2016-05-03T03:29:10.937Z,101213
2016-05-03T03:29:23.546Z,101238
2016-05-03T03:30:28.705Z,101222
2016-05-03T03:30:41.361Z,101228
2016-05-03T03:30:53.705Z,101228
2016-05-03T03:32:06.288Z,101234
2016-05-03T03:32:18.726Z,101234
2016-05-03T03:33:28.479Z,101228
2016-05-03T03:33:41.135Z,101228
2016-05-03T03:33:53.588Z,101225
2016-05-03T03:34:06.075Z,101234
2016-05-03T03:34:18.715Z,101228
2016-05-03T03:35:28.390Z,101222
2016-05-03T03:35:40.906Z,101225
2016-05-03T03:35:53.937Z,101228
2016-05-03T03:37:58.304Z,101225
2016-05-03T03:38:10.914Z,101231
2016-05-03T03:38:23.336Z,101225
2016-05-03T03:38:35.742Z,101231
2016-05-03T03:38:48.382Z,101228
2016-05-03T03:39:58.450Z,101231
2016-05-03T03:40:10.919Z,101228
2016-05-03T03:40:23.559Z,101222
2016-05-03T03:40:36.044Z,101219
2016-05-03T03:42:41.222Z,101234
2016-05-03T03:42:54.456Z,101228
2016-05-03T03:43:06.865Z,101225
2016-05-03T03:43:19.396Z,101222
2016-05-03T03:43:31.787Z,101228
2016-05-03T03:43:44.459Z,101228
2016-05-03T03:43:56.756Z,101228
2016-05-03T03:46:03.732Z,101237
2016-05-03T03:46:16.388Z,101228
2016-05-03T03:46:28.825Z,101228
2016-05-03T03:46:41.310Z,101237
2016-05-03T03:46:54.044Z,101234
2016-05-03T03:47:06.500Z,101218
2016-05-03T03:47:18.969Z,101231
2016-05-03T03:47:31.563Z,101231
2016-05-03T03:47:44.125Z,101228
2016-05-03T03:47:56.610Z,101231
2016-05-03T03:48:09.222Z,101225
2016-05-03T03:48:22.144Z,101221
2016-05-03T03:48:34.753Z,101224
2016-05-03T03:49:44.005Z,101234
2016-05-03T03:49:57.099Z,101215
2016-05-03T03:50:09.650Z,101221
2016-05-03T03:50:22.275Z,101228
2016-05-03T03:50:34.665Z,101221
2016-05-03T03:50:47.181Z,101231
2016-05-03T03:50:59.808Z,101228
2016-05-03T03:51:12.167Z,101224
2016-05-03T03:51:24.621Z,101221
2016-05-03T03:51:37.058Z,101215
2016-05-03T03:51:49.730Z,101209
2016-05-03T03:52:03.342Z,101221
2016-05-03T03:52:16.780Z,101224
2016-05-03T03:52:31.014Z,101227
2016-05-03T03:52:44.499Z,101227
2016-05-03T03:52:57.045Z,101227
2016-05-03T03:53:09.469Z,101227
2016-05-03T03:53:22.172Z,101230
2016-05-03T03:53:34.626Z,101224
2016-05-03T03:53:47.079Z,101231
2016-05-03T03:53:59.738Z,101230
2016-05-03T03:54:12.238Z,101231
2016-05-03T03:54:24.738Z,101240
2016-05-03T03:54:37.019Z,101240
2016-05-03T03:55:46.271Z,101227
2016-05-03T03:55:58.775Z,101234
2016-05-03T03:56:11.056Z,101237
2016-05-03T03:56:23.635Z,101243
2016-05-03T03:56:36.181Z,101237
2016-05-03T03:56:48.588Z,101249
2016-05-03T03:57:01.215Z,101243
2016-05-03T03:57:13.777Z,101237
2016-05-03T03:57:26.183Z,101240
2016-05-03T03:57:39.262Z,101227
2016-05-03T03:57:51.793Z,101240
2016-05-03T03:58:04.373Z,101240
2016-05-03T03:59:08.751Z,101236
2016-05-03T03:59:21.267Z,101243
2016-05-03T03:59:33.751Z,101239
2016-05-03T03:59:46.188Z,101236
2016-05-03T04:00:51.051Z,101243
2016-05-03T04:01:03.663Z,101239
2016-05-03T04:01:16.069Z,101242
2016-05-03T04:02:28.557Z,101243
2016-05-03T04:03:38.699Z,101230
2016-05-03T04:03:51.074Z,101243
2016-05-03T04:04:03.593Z,101236
2016-05-03T04:04:16.218Z,101236
2016-05-03T04:04:28.812Z,101233
2016-05-03T04:05:38.705Z,101224
2016-05-03T04:05:52.346Z,101233
2016-05-03T04:06:05.037Z,101230
2016-05-03T04:08:08.759Z,101233
2016-05-03T04:08:21.369Z,101242
2016-05-03T04:08:33.916Z,101236
2016-05-03T04:08:46.259Z,101233
2016-05-03T04:08:58.887Z,101230
2016-05-03T04:10:08.703Z,101230
2016-05-03T04:10:21.250Z,101236
2016-05-03T04:10:33.562Z,101236
2016-05-03T04:10:45.984Z,101230
2016-05-03T04:10:58.706Z,101236
2016-05-03T04:13:03.571Z,101236
2016-05-03T04:13:16.071Z,101230
2016-05-03T04:13:28.743Z,101233
2016-05-03T04:13:41.165Z,101236
2016-05-03T04:13:53.727Z,101245
2016-05-03T04:14:06.369Z,101227
2016-05-03T04:16:11.078Z,101242
2016-05-03T04:16:23.469Z,101236
2016-05-03T04:16:36.000Z,101236
2016-05-03T04:16:49.016Z,101242
2016-05-03T04:17:01.628Z,101242
2016-05-03T04:17:14.034Z,101242
2016-05-03T04:17:26.456Z,101230
2016-05-03T04:17:39.128Z,101239
2016-05-03T04:17:52.347Z,101242
2016-05-03T04:18:04.772Z,101230
2016-05-03T04:18:17.365Z,101242
2016-05-03T04:18:29.881Z,101236
2016-05-03T04:18:42.240Z,101230
2016-05-03T04:18:54.834Z,101230
2016-05-03T04:20:06.933Z,101239
2016-05-03T04:20:19.542Z,101236
2016-05-03T04:20:32.011Z,101233
2016-05-03T04:20:44.464Z,101227
2016-05-03T04:20:57.105Z,101230
2016-05-03T04:21:09.627Z,101236
2016-05-03T04:21:22.065Z,101239
2016-05-03T04:21:34.643Z,101239
2016-05-03T04:21:47.268Z,101239
2016-05-03T04:21:59.676Z,101227
2016-05-03T04:22:12.208Z,101230
2016-05-03T04:22:24.770Z,101242
2016-05-03T04:23:33.680Z,101236
2016-05-03T04:23:46.211Z,101251
2016-05-03T04:23:58.758Z,101233
2016-05-03T04:24:11.369Z,101230
2016-05-03T04:24:23.822Z,101236
2016-05-03T04:24:36.322Z,101227
2016-05-03T04:24:48.900Z,101236
2016-05-03T04:25:02.107Z,101239
2016-05-03T04:25:14.591Z,101233
2016-05-03T04:25:27.200Z,101236
2016-05-03T04:25:39.669Z,101239
2016-05-03T04:26:46.355Z,101239
2016-05-03T04:26:58.995Z,101242
2016-05-03T04:27:11.484Z,101239
2016-05-03T04:27:24.000Z,101233
2016-05-03T04:27:36.437Z,101239
2016-05-03T04:27:49.015Z,101242
2016-05-03T04:28:02.283Z,101233
2016-05-03T04:28:14.737Z,101239
2016-05-03T04:28:27.190Z,101224
2016-05-03T04:28:40.330Z,101236
2016-05-03T04:28:52.799Z,101236
2016-05-03T04:29:05.225Z,101230
2016-05-03T04:29:17.819Z,101224
2016-05-03T04:29:30.366Z,101227
2016-05-03T04:29:42.772Z,101224
2016-05-03T04:29:55.413Z,101224
2016-05-03T04:30:59.041Z,101233
2016-05-03T04:31:11.731Z,101224
2016-05-03T04:31:24.387Z,101221
2016-05-03T04:32:36.411Z,101224
2016-05-03T04:32:52.442Z,101221
2016-05-03T04:34:56.336Z,101227
2016-05-03T04:35:08.736Z,101236
2016-05-03T04:35:21.376Z,101239
2016-05-03T04:35:33.892Z,101233
2016-05-03T04:35:46.361Z,101220
2016-05-03T04:36:56.696Z,101236
2016-05-03T04:37:12.389Z,101233
2016-05-03T04:37:26.124Z,101224
2016-05-03T04:37:39.968Z,101233
2016-05-03T04:38:49.113Z,101227